^^
Station Historical Data
Daily Summary for January 15, 2018 Units:  English    Metric   Both
« Previous Day
Next Day »
Daily Weekly Monthly Yearly Custom
  High: Low: Average:
Temperature: 27.0 °F 8.6 °F 16.9 °F
Dew Point: 21.9 °F 8.2 °F 15.3 °F
Humidity: 98% 75% 94%
Wind Speed: 4.6mph 0.0mph 1mph
Wind Gust: 4.6mph - -
Wind- - ENE
Pressure: 30.34 in 30.12 in -
Precipitation: 0.00 in    
Historical Graphs
 
 
Tabular Data for January 15, 2018
Time Temperature Dew Point Pressure Wind Wind Speed Wind Gust Humidity Rainfall Rate (Hourly) solar Conditions
00:09 12.2 °F 11.3 °F 30.15 in Calm     96% 0.00 in 0.0 W/m2 -SN
00:17 12.2 °F 11.3 °F 30.15 in Calm     96% 0.00 in 0.0 W/m2 -SN
00:26 12.2 °F 11.3 °F 30.14 in NNE 1.2 mph   96% 0.00 in 0.0 W/m2 -SN
00:32 12.2 °F 11.3 °F 30.14 in Calm     96% 0.00 in 0.0 W/m2 -SN
00:38 12.2 °F 11.3 °F 30.14 in Calm     96% 0.00 in 0.0 W/m2 -SN
00:47 12.2 °F 11.3 °F 30.14 in Calm     96% 0.00 in 0.0 W/m2 -SN
00:52 12.2 °F 11.3 °F 30.14 in Calm     96% 0.00 in 0.0 W/m2 -SN
01:05 12.2 °F 11.3 °F 30.14 in Calm     96% 0.00 in 0.0 W/m2 -SN
01:12 12.2 °F 11.3 °F 30.14 in Calm     96% 0.00 in 0.0 W/m2 -SN
01:21 12.2 °F 11.7 °F 30.13 in Calm     98% 0.00 in 0.0 W/m2 -SN
01:29 12.2 °F 11.7 °F 30.14 in Calm     98% 0.00 in 0.0 W/m2 -SN
01:36 12.2 °F 11.7 °F 30.14 in Calm     98% 0.00 in 0.0 W/m2 -SN
01:41 12.2 °F 11.7 °F 30.14 in Calm     98% 0.00 in 0.0 W/m2 -SN
01:54 12.2 °F 11.7 °F 30.14 in Calm     98% 0.00 in 0.0 W/m2 -SN
01:59 12.2 °F 11.7 °F 30.14 in Calm     98% 0.00 in 0.0 W/m2 -SN
02:26 12.2 °F 11.7 °F 30.13 in Calm     98% 0.00 in 0.0 W/m2 -SN
02:33 12.2 °F 11.7 °F 30.13 in Calm     98% 0.00 in 0.0 W/m2 -SN
02:41 12.2 °F 11.7 °F 30.13 in Calm     98% 0.00 in 0.0 W/m2 -SN
02:47 12.2 °F 11.7 °F 30.13 in Calm     98% 0.00 in 0.0 W/m2 -SN
02:52 12.2 °F 11.7 °F 30.13 in Calm     98% 0.00 in 0.0 W/m2 -SN
03:38 14.0 °F 13.5 °F 30.12 in Calm     98% 0.00 in 0.0 W/m2 -SN
04:00 14.0 °F 13.5 °F 30.13 in East 1.2 mph   98% 0.00 in 0.0 W/m2 -SN
04:11 14.0 °F 13.5 °F 30.13 in Calm     98% 0.00 in 0.0 W/m2 -SN
04:17 14.0 °F 13.5 °F 30.12 in Calm     98% 0.00 in 0.0 W/m2 -SN
04:24 14.0 °F 13.5 °F 30.12 in Calm     98% 0.00 in 0.0 W/m2 -SN
04:29 14.0 °F 13.5 °F 30.13 in Calm     98% 0.00 in 0.0 W/m2 -SN
04:42 14.0 °F 13.5 °F 30.12 in Calm     98% 0.00 in 0.0 W/m2 -SN
04:47 14.0 °F 13.5 °F 30.13 in Calm     98% 0.00 in 0.0 W/m2 -SN
04:56 14.2 °F 13.7 °F 30.13 in Calm     98% 0.00 in 0.0 W/m2 -SN
05:10 14.2 °F 13.7 °F 30.13 in Calm     98% 0.00 in 0.0 W/m2 -SN
05:15 14.2 °F 13.7 °F 30.13 in Calm     98% 0.00 in 0.0 W/m2 -SN
05:41 14.5 °F 14.1 °F 30.13 in NE 1.2 mph   98% 0.00 in 0.0 W/m2 -SN
05:47 14.5 °F 14.1 °F 30.13 in Calm     98% 0.00 in 0.0 W/m2 -SN
05:53 14.5 °F 14.1 °F 30.13 in Calm     98% 0.00 in 0.0 W/m2 -SN
06:11 14.7 °F 14.3 °F 30.13 in Calm     98% 0.00 in 0.0 W/m2 OVC
06:20 14.7 °F 14.3 °F 30.14 in Calm     98% 0.00 in 0.0 W/m2 OVC
06:31 14.7 °F 14.3 °F 30.14 in Calm     98% 0.00 in 0.0 W/m2 OVC
06:39 14.9 °F 14.4 °F 30.14 in Calm     98% 0.00 in 0.0 W/m2 OVC
06:45 14.9 °F 14.4 °F 30.14 in Calm     98% 0.00 in 0.0 W/m2 OVC
06:51 14.9 °F 14.4 °F 30.14 in Calm     98% 0.00 in 0.0 W/m2 OVC
07:06 14.9 °F 14.4 °F 30.14 in Calm     98% 0.00 in 0.0 W/m2 -SN
07:23 14.9 °F 14.4 °F 30.14 in Calm     98% 0.00 in 0.0 W/m2 -SN
07:28 14.9 °F 14.4 °F 30.14 in Calm     98% 0.00 in 0.0 W/m2 -SN
07:34 14.9 °F 14.4 °F 30.14 in Calm     98% 0.00 in 3.0 W/m2 -SN
07:40 14.9 °F 14.4 °F 30.15 in Calm     98% 0.00 in 67.4 W/m2 -SN
07:46 15.1 °F 14.6 °F 30.14 in Calm     98% 0.00 in 20.0 W/m2 -SN
07:52 15.1 °F 14.6 °F 30.14 in Calm     98% 0.00 in 117.9 W/m2 -SN
08:05 15.3 °F 14.8 °F 30.15 in Calm     98% 0.00 in 136.0 W/m2 CLR
08:15 15.8 °F 15.3 °F 30.15 in Calm     98% 0.00 in 74.0 W/m2 CLR
08:26 16.0 °F 15.5 °F 30.15 in Calm     98% 0.00 in 96.0 W/m2 CLR
08:37 16.2 °F 15.7 °F 30.15 in Calm     98% 0.00 in 175.4 W/m2 CLR
08:44 16.3 °F 15.9 °F 30.15 in Calm     98% 0.00 in 183.5 W/m2 CLR
08:49 16.9 °F 16.4 °F 30.15 in Calm     98% 0.00 in 183.5 W/m2 -SN
08:57 17.2 °F 16.8 °F 30.15 in Calm     98% 0.00 in 161.0 W/m2 -SN
09:05 17.8 °F 17.3 °F 30.15 in Calm     98% 0.00 in 194.6 W/m2 -SN
09:18 18.7 °F 17.7 °F 30.16 in Calm     96% 0.00 in 205.7 W/m2 -SN
09:31 19.6 °F 18.6 °F 30.17 in Calm     96% 0.00 in 208.8 W/m2 -SN
09:38 19.8 °F 18.8 °F 30.15 in Calm     96% 0.00 in 216.8 W/m2 -SN
09:44 20.1 °F 19.2 °F 30.17 in ENE 3.5 mph 3.5 mph 96% 0.00 in 218.9 W/m2 -SN
09:59 21.7 °F 20.0 °F 30.17 in ENE 3.5 mph 3.5 mph 93% 0.00 in 230.0 W/m2 -SN
10:05 22.1 °F 20.4 °F 30.17 in ENE 2.3 mph 2.3 mph 93% 0.00 in 229.0 W/m2 -SN
10:13 22.8 °F 20.6 °F 30.17 in ENE 2.3 mph 2.3 mph 91% 0.00 in 238.1 W/m2 -SN
10:18 22.8 °F 20.6 °F 30.17 in ESE 3.5 mph 3.5 mph 91% 0.00 in 237.0 W/m2 -SN
10:25 23.4 °F 21.1 °F 30.17 in ESE 3.5 mph 3.5 mph 91% 0.00 in 237.0 W/m2 -SN
10:42 24.4 °F 21.9 °F 30.17 in East 4.6 mph 4.6 mph 90% 0.00 in 243.1 W/m2 -SN
10:54 24.4 °F 21.4 °F 30.17 in ENE 3.5 mph 3.5 mph 88% 0.00 in 240.1 W/m2 -SN
11:21 24.3 °F 21.8 °F 30.16 in ESE 3.5 mph 3.5 mph 90% 0.00 in 243.1 W/m2 -SN
11:27 24.3 °F 21.2 °F 30.16 in East 3.5 mph 3.5 mph 88% 0.00 in 257.2 W/m2 -SN
11:38 24.3 °F 21.2 °F 30.16 in East 4.6 mph 4.6 mph 88% 0.00 in 240.1 W/m2 -SN
11:53 25.0 °F 21.4 °F 30.16 in NE 3.5 mph 3.5 mph 86% 0.00 in 256.2 W/m2 -SN
12:06 23.4 °F 21.1 °F 30.16 in ESE 3.5 mph 3.5 mph 91% 0.00 in 237.0 W/m2 -SN
12:11 23.7 °F 21.5 °F 30.16 in East 2.3 mph 2.3 mph 91% 0.00 in 213.8 W/m2 -SN
12:28 25.0 °F 21.4 °F 30.16 in NE 2.3 mph 2.3 mph 86% 0.00 in 235.0 W/m2 OVC
12:36 25.9 °F 21.4 °F 30.16 in ENE 2.3 mph 2.3 mph 83% 0.00 in 258.2 W/m2 OVC
12:49 26.2 °F 21.2 °F 30.16 in East 2.3 mph 2.3 mph 81% 0.00 in 264.3 W/m2 OVC
13:05 27.0 °F 20.1 °F 30.16 in North 2.3 mph 2.3 mph 75% 0.00 in 277.4 W/m2 OVC
13:26 25.7 °F 20.4 °F 30.16 in East 3.5 mph 3.5 mph 80% 0.00 in 259.3 W/m2 OVC
13:31 24.8 °F 20.4 °F 30.16 in ENE 3.5 mph 3.5 mph 83% 0.00 in 229.0 W/m2 OVC
13:50 26.2 °F 20.6 °F 30.17 in ENE 2.3 mph 2.3 mph 79% 0.00 in 249.2 W/m2 OVC
14:02 24.6 °F 19.6 °F 30.17 in East 3.5 mph 3.5 mph 81% 0.00 in 230.0 W/m2 -SN
14:12 24.4 °F 19.4 °F 30.17 in ENE 3.5 mph 3.5 mph 81% 0.00 in 220.9 W/m2 -SN
14:27 24.3 °F 19.3 °F 30.17 in ENE 3.5 mph 3.5 mph 81% 0.00 in 242.1 W/m2 -SN
14:46 24.3 °F 19.3 °F 30.19 in East 3.5 mph 3.5 mph 81% 0.00 in 223.9 W/m2 OVC
14:47 24.3 °F 19.3 °F 30.17 in East 3.5 mph 3.5 mph 81% 0.00 in 223.9 W/m2 OVC
14:48 24.1 °F 19.1 °F 30.19 in East 2.3 mph 2.3 mph 81% 0.00 in 194.0 W/m2 OVC
14:49 24.3 °F 19.3 °F 30.19 in East 2.3 mph 2.3 mph 81% 0.00 in 192.0 W/m2 OVC
14:50 24.3 °F 19.3 °F 30.19 in ENE 2.3 mph 2.3 mph 81% 0.00 in 190.0 W/m2 OVC
14:51 24.3 °F 19.3 °F 30.19 in ENE 2.3 mph 2.3 mph 81% 0.00 in 188.0 W/m2 OVC
15:04 24.8 °F 19.2 °F 30.19 in NE 1.2 mph 1.2 mph 79% 0.00 in 162.0 W/m2 -SN
15:08 23.7 °F 19.3 °F 30.19 in NE 1.2 mph   83% 0.00 in 223.9 W/m2 -SN
15:17 23.4 °F 19.8 °F 30.19 in Calm     86% 0.00 in 202.7 W/m2 -SN
15:26 22.6 °F 19.1 °F 30.20 in ENE 1.2 mph   86% 0.00 in 202.7 W/m2 -SN
15:33 22.1 °F 18.6 °F 30.20 in ENE 3.5 mph 3.5 mph 86% 0.00 in 202.7 W/m2 -SN
16:15 20.5 °F 18.3 °F 30.22 in Calm     91% 0.00 in 21.0 W/m2 -SN
16:23 19.8 °F 18.1 °F 30.22 in Calm     93% 0.00 in 140.1 W/m2 -SN
16:40 19.2 °F 17.5 °F 30.24 in ENE 1.2 mph   93% 0.00 in 101.7 W/m2 -SN
16:47 18.9 °F 17.2 °F 30.23 in Calm     93% 0.00 in 85.5 W/m2 -SN
16:54 18.1 °F 16.5 °F 30.23 in Calm     93% 0.00 in 0.0 W/m2 -SN
17:00 18.1 °F 16.9 °F 30.23 in NNE 2.3 mph 2.3 mph 95% 0.00 in 0.0 W/m2 -SN
17:14 17.8 °F 16.8 °F 30.24 in Calm     96% 0.00 in 0.0 W/m2 OVC
17:23 17.8 °F 16.8 °F 30.24 in Calm     96% 0.00 in 0.0 W/m2 -SN
17:30 17.4 °F 16.5 °F 30.25 in NE 2.3 mph 2.3 mph 96% 0.00 in 0.0 W/m2 -SN
17:52 17.1 °F 16.1 °F 30.26 in East 1.2 mph 1.2 mph 96% 0.00 in 0.0 W/m2 -SN
18:01 16.3 °F 15.2 °F 30.26 in NE 1.2 mph   95% 0.00 in 0.0 W/m2 -SN
18:08 16.2 °F 15.0 °F 30.26 in ENE 1.2 mph 1.2 mph 95% 0.00 in 0.0 W/m2 -SN
18:19 15.8 °F 14.9 °F 30.27 in ESE 1.2 mph   96% 0.00 in 0.0 W/m2 -SN
18:32 15.3 °F 14.3 °F 30.26 in Calm     96% 0.00 in 0.0 W/m2 -SN
18:38 15.1 °F 14.1 °F 30.27 in Calm     96% 0.00 in 0.0 W/m2 -SN
18:50 14.4 °F 13.4 °F 30.27 in Calm     96% 0.00 in 0.0 W/m2 -SN
19:07 14.0 °F 13.5 °F 30.27 in Calm     98% 0.00 in 0.0 W/m2 OVC
19:23 14.0 °F 13.5 °F 30.27 in East 1.2 mph   98% 0.00 in 0.0 W/m2 OVC
19:37 12.2 °F 11.7 °F 30.29 in NE 1.2 mph   98% 0.00 in 0.0 W/m2 BKN
20:14 10.4 °F 9.9 °F 30.29 in Calm     98% 0.00 in 0.0 W/m2 BKN
20:20 10.4 °F 9.9 °F 30.30 in East 1.2 mph   98% 0.00 in 0.0 W/m2 BKN
21:08 12.2 °F 11.7 °F 30.30 in Calm     98% 0.00 in 0.0 W/m2 SCT
21:40 10.4 °F 9.9 °F 30.32 in Calm     98% 0.00 in 0.0 W/m2 BKN
21:53 8.6 °F 8.2 °F 30.32 in Calm     98% 0.00 in 0.0 W/m2 BKN
21:59 8.6 °F 8.2 °F 30.32 in Calm     98% 0.00 in 0.0 W/m2 BKN
22:23 8.6 °F 8.2 °F 30.32 in East 3.5 mph   98% 0.00 in 0.0 W/m2 BKN
22:29 8.6 °F 8.2 °F 30.33 in Calm     98% 0.00 in 0.0 W/m2 BKN
22:39 8.6 °F 8.2 °F 30.33 in Calm     98% 0.00 in 0.0 W/m2 BKN
22:46 8.6 °F 8.2 °F 30.33 in Calm     98% 0.00 in 0.0 W/m2 BKN
22:52 8.6 °F 8.2 °F 30.33 in Calm     98% 0.00 in 0.0 W/m2 BKN
23:03 8.6 °F 8.2 °F 30.33 in North 1.2 mph   98% 0.00 in 0.0 W/m2 OVC
23:27 10.4 °F 9.9 °F 30.34 in Calm     98% 0.00 in 0.0 W/m2 OVC
Juneau County Weather
Compliments of Weather Underground - 4.75 mb